Time;durP1;ratioP1;P1;durP2;ratioP2;P2;SDS_P1;SDS_P2;PMS_P1;PMS_P2;Temp;Humidity;BMP_temperature;BMP_pressure;BME280_temperature;BME280_humidity;BME280_pressure;Samples;Min_cycle;Max_cycle;Signal;HPM_P1;HPM_P2
2021/08/15 00:00:58;;;;;;;23.90;19.62;;;;;;;22.97;62.92;98971.69;2279192;78;20960;-82
2021/08/15 00:03:58;;;;;;;25.05;19.37;;;;;;;22.92;62.89;98964.80;2279356;78;20956;-81
2021/08/15 00:06:59;;;;;;;25.12;18.92;;;;;;;22.87;62.77;98972.95;2279356;78;20932;-82
2021/08/15 00:09:59;;;;;;;25.62;20.17;;;;;;;22.80;62.99;98968.77;2279051;78;21316;-82
2021/08/15 00:13:00;;;;;;;24.50;20.25;;;;;;;22.85;63.34;98975.66;2279332;78;20917;-81
2021/08/15 00:16:01;;;;;;;26.80;20.70;;;;;;;22.88;63.08;98970.69;2279566;78;21352;-83
2021/08/15 00:19:05;;;;;;;22.48;20.08;;;;;;;22.91;63.21;98974.58;2279603;78;20987;-83
2021/08/15 00:22:04;;;;;;;22.58;19.52;;;;;;;22.94;63.09;98966.48;2279393;78;20928;-83
2021/08/15 00:25:05;;;;;;;21.93;19.52;;;;;;;22.91;63.03;98968.38;2279388;78;20905;-82
2021/08/15 00:28:05;;;;;;;22.35;20.02;;;;;;;22.93;63.12;98963.87;2279696;78;20959;-83
2021/08/15 00:31:06;;;;;;;20.82;18.70;;;;;;;23.02;63.05;98972.39;2279529;78;21000;-83
2021/08/15 00:34:06;;;;;;;24.87;19.45;;;;;;;23.05;62.83;98969.62;2279822;78;20928;-83
2021/08/15 00:37:07;;;;;;;22.87;20.43;;;;;;;23.06;62.82;98963.83;2279488;78;20931;-82
2021/08/15 00:40:07;;;;;;;21.97;19.42;;;;;;;23.01;62.33;98962.67;2279383;78;20944;-82
2021/08/15 00:43:08;;;;;;;25.15;19.55;;;;;;;22.85;62.49;98965.02;2279185;78;21237;-82
2021/08/15 00:46:08;;;;;;;21.68;19.30;;;;;;;22.81;62.88;98962.52;2279288;78;20937;-82
2021/08/15 00:49:09;;;;;;;27.87;20.45;;;;;;;22.86;62.93;98961.89;2279174;78;20979;-82
2021/08/15 00:52:09;;;;;;;23.22;20.75;;;;;;;22.95;62.91;98959.36;2279136;78;20913;-83
2021/08/15 00:55:11;;;;;;;22.30;19.98;;;;;;;23.07;62.85;98965.10;2279250;78;20900;-82
2021/08/15 00:58:13;;;;;;;20.50;18.42;;;;;;;23.13;62.58;98958.69;2278993;78;21312;-83
2021/08/15 01:01:14;;;;;;;22.00;17.50;;;;;;;23.16;62.34;98957.23;2278823;78;21402;-81
2021/08/15 01:04:15;;;;;;;25.52;19.48;;;;;;;23.15;62.09;98954.17;2279597;78;20956;-83
2021/08/15 01:07:17;;;;;;;20.77;18.37;;;;;;;23.12;62.11;98951.63;2279106;78;21280;-82
2021/08/15 01:10:17;;;;;;;20.37;18.12;;;;;;;23.09;61.96;98957.06;2279278;78;21020;-82
2021/08/15 01:13:18;;;;;;;25.32;19.62;;;;;;;22.98;61.95;98949.47;2279125;78;20908;-82
2021/08/15 01:16:18;;;;;;;23.57;19.10;;;;;;;22.61;61.20;98940.58;2279183;78;20905;-82
2021/08/15 01:19:19;;;;;;;21.25;18.27;;;;;;;22.24;62.78;98951.13;2278965;78;20944;-81
2021/08/15 01:22:20;;;;;;;22.40;19.50;;;;;;;22.38;63.19;98955.11;2279183;78;21288;-81
2021/08/15 01:25:20;;;;;;;25.27;18.87;;;;;;;22.52;63.15;98952.84;2278914;78;21292;-82
2021/08/15 01:28:20;;;;;;;21.95;18.75;;;;;;;22.65;62.88;98950.65;2279448;78;20948;-82
2021/08/15 01:31:21;;;;;;;22.22;18.50;;;;;;;22.74;62.63;98946.33;2279035;78;20996;-83
2021/08/15 01:34:21;;;;;;;20.80;18.65;;;;;;;22.79;62.47;98948.37;2278905;78;20925;-82
2021/08/15 01:37:22;;;;;;;20.70;18.40;;;;;;;22.82;62.37;98949.16;2279350;78;21288;-82
2021/08/15 01:40:22;;;;;;;24.02;18.40;;;;;;;22.86;62.13;98949.45;2279211;78;20944;-82
2021/08/15 01:43:23;;;;;;;23.75;19.20;;;;;;;22.88;61.88;98947.61;2279110;78;20905;-82
2021/08/15 01:46:24;;;;;;;19.45;17.40;;;;;;;22.92;61.80;98945.70;2279109;78;20921;-82
2021/08/15 01:49:24;;;;;;;20.17;17.85;;;;;;;22.92;61.43;98942.17;2279220;78;20918;-82
2021/08/15 01:52:24;;;;;;;20.62;18.15;;;;;;;22.83;61.41;98940.71;2279261;78;21312;-81
2021/08/15 01:55:25;;;;;;;20.43;18.27;;;;;;;22.72;61.34;98942.40;2279168;78;20944;-82
2021/08/15 01:58:25;;;;;;;23.75;18.20;;;;;;;22.63;61.74;98937.41;2279116;78;20881;-81
2021/08/15 02:01:26;;;;;;;20.70;17.42;;;;;;;22.70;61.71;98932.73;2279015;78;20968;-82
2021/08/15 02:04:27;;;;;;;23.12;17.48;;;;;;;22.71;61.45;98927.36;2279170;78;20905;-82
2021/08/15 02:07:27;;;;;;;18.95;17.00;;;;;;;22.60;61.31;98932.19;2279261;78;21280;-81
2021/08/15 02:10:28;;;;;;;18.48;16.60;;;;;;;22.48;61.38;98928.59;2279340;78;20866;-81
2021/08/15 02:13:28;;;;;;;21.17;18.27;;;;;;;22.43;61.53;98934.08;2278761;78;20940;-81
2021/08/15 02:16:29;;;;;;;22.80;18.90;;;;;;;22.43;61.69;98921.24;2279108;78;20921;-82
2021/08/15 02:19:29;;;;;;;21.20;17.62;;;;;;;22.49;61.72;98914.38;2280756;78;21304;-82
2021/08/15 02:22:30;;;;;;;21.25;16.60;;;;;;;22.51;61.48;98908.55;2282467;78;20897;-81
2021/08/15 02:25:30;;;;;;;20.00;17.17;;;;;;;22.49;61.29;98898.42;2282575;77;20869;-82
2021/08/15 02:28:31;;;;;;;21.42;17.48;;;;;;;22.48;61.21;98900.67;2282514;78;20955;-83
2021/08/15 02:31:31;;;;;;;23.60;17.37;;;;;;;22.44;61.22;98896.38;2282399;77;20956;-81
2021/08/15 02:34:32;;;;;;;19.70;15.35;;;;;;;22.43;61.18;98900.83;2283070;78;20927;-81
2021/08/15 02:37:32;;;;;;;19.95;17.82;;;;;;;22.25;60.77;98901.02;2283079;77;20897;-82
2021/08/15 02:40:33;;;;;;;22.22;16.93;;;;;;;22.12;61.03;98902.81;2282921;77;20944;-81
2021/08/15 02:43:33;;;;;;;20.65;18.32;;;;;;;22.12;61.53;98905.47;2282826;77;20924;-81
2021/08/15 02:46:34;;;;;;;19.67;16.57;;;;;;;22.22;61.49;98901.58;2283006;78;20909;-82
2021/08/15 02:49:35;;;;;;;27.22;16.40;;;;;;;22.25;61.26;98905.00;2283155;78;20936;-81
2021/08/15 02:52:35;;;;;;;19.65;17.75;;;;;;;22.25;61.01;98907.66;2282924;78;20925;-81
2021/08/15 02:55:36;;;;;;;21.93;17.35;;;;;;;22.17;60.92;98903.53;2282919;77;20936;-81
2021/08/15 02:58:36;;;;;;;20.08;17.98;;;;;;;22.10;61.01;98904.20;2283016;78;21297;-82
2021/08/15 03:01:37;;;;;;;22.90;18.23;;;;;;;22.07;61.05;98901.64;2282801;77;21311;-81
2021/08/15 03:04:37;;;;;;;20.72;17.77;;;;;;;21.99;60.98;98894.35;2282878;78;20889;-81
2021/08/15 03:07:38;;;;;;;20.77;18.27;;;;;;;21.98;61.03;98895.27;2283108;77;20936;-81
2021/08/15 03:10:38;;;;;;;20.20;18.05;;;;;;;21.98;61.05;98884.64;2282822;77;20965;-81
2021/08/15 03:13:39;;;;;;;20.60;17.90;;;;;;;21.95;60.97;98890.06;2282903;77;20890;-82
2021/08/15 03:16:39;;;;;;;20.80;18.67;;;;;;;21.93;61.08;98887.45;2282927;78;20913;-81
2021/08/15 03:19:40;;;;;;;24.55;19.55;;;;;;;21.90;61.03;98899.97;2283041;77;20970;-81
2021/08/15 03:22:41;;;;;;;22.73;19.60;;;;;;;21.85;61.07;98896.59;2282982;78;20943;-81
2021/08/15 03:25:41;;;;;;;19.95;17.60;;;;;;;21.82;61.16;98893.58;2283101;77;20873;-82
2021/08/15 03:28:43;;;;;;;21.07;18.82;;;;;;;21.78;60.95;98891.08;2282925;77;20935;-81
2021/08/15 03:31:43;;;;;;;20.97;18.60;;;;;;;21.74;61.04;98895.62;2282592;78;21130;-81
2021/08/15 03:34:44;;;;;;;21.05;18.82;;;;;;;21.73;61.09;98887.70;2282576;77;21264;-81
2021/08/15 03:37:44;;;;;;;21.42;19.17;;;;;;;21.76;61.05;98890.26;2282634;77;21162;-81
2021/08/15 03:40:45;;;;;;;22.73;20.35;;;;;;;21.72;61.10;98887.29;2282901;77;20877;-82
2021/08/15 03:43:45;;;;;;;19.82;17.95;;;;;;;21.69;60.36;98887.39;2282886;77;20913;-82
2021/08/15 03:46:46;;;;;;;21.95;19.42;;;;;;;21.63;60.36;98883.11;2282762;77;20932;-81
2021/08/15 03:49:46;;;;;;;21.20;19.07;;;;;;;21.67;60.52;98883.88;2283169;77;20893;-81
2021/08/15 03:52:47;;;;;;;22.07;18.02;;;;;;;21.70;60.33;98881.16;2282674;78;20901;-81
2021/08/15 03:55:47;;;;;;;20.77;18.52;;;;;;;21.72;60.35;98885.50;2282818;77;20904;-81
2021/08/15 03:58:48;;;;;;;21.40;19.17;;;;;;;21.83;60.26;98883.83;2282409;77;20941;-81
2021/08/15 04:01:48;;;;;;;24.70;20.75;;;;;;;21.96;59.93;98880.30;2282630;77;20944;-80
2021/08/15 04:04:49;;;;;;;22.32;19.42;;;;;;;22.08;59.57;98884.77;2282448;77;21300;-80
2021/08/15 04:07:49;;;;;;;20.05;18.10;;;;;;;22.11;59.25;98886.00;2282901;77;21303;-81
2021/08/15 04:10:50;;;;;;;20.43;18.40;;;;;;;22.14;59.11;98879.25;2282604;77;20913;-81
2021/08/15 04:13:50;;;;;;;20.68;18.65;;;;;;;22.17;58.92;98879.14;2282775;77;20943;-80
2021/08/15 04:16:51;;;;;;;22.60;17.17;;;;;;;22.20;58.81;98877.70;2282542;77;20913;-80
2021/08/15 04:19:51;;;;;;;20.72;18.52;;;;;;;22.20;58.70;98872.84;2280467;77;20952;-81
2021/08/15 04:22:52;;;;;;;21.90;18.48;;;;;;;22.23;58.56;98869.62;2278823;78;21264;-80
2021/08/15 04:25:52;;;;;;;19.90;17.92;;;;;;;22.28;58.39;98873.45;2279067;78;20924;-81
2021/08/15 04:28:53;;;;;;;19.50;17.62;;;;;;;22.32;58.30;98877.73;2278953;78;20905;-81
2021/08/15 04:31:53;;;;;;;20.25;18.27;;;;;;;22.35;58.45;98870.98;2278855;78;20955;-81
2021/08/15 04:34:54;;;;;;;19.15;17.15;;;;;;;22.41;58.52;98869.90;2278636;78;21262;-81
2021/08/15 04:37:54;;;;;;;18.27;16.25;;;;;;;22.50;58.46;98862.45;2278826;78;20908;-82
2021/08/15 04:40:58;;;;;;;18.45;16.50;;;;;;;22.60;58.40;98859.50;2278888;78;20960;-81
2021/08/15 04:43:58;;;;;;;19.70;15.35;;;;;;;22.74;58.27;98862.05;2278511;78;21288;-81
2021/08/15 04:46:59;;;;;;;16.87;15.25;;;;;;;22.89;58.01;98859.31;2279023;78;20905;-83
2021/08/15 04:49:59;;;;;;;22.32;16.85;;;;;;;23.00;57.85;98850.45;2278796;78;20967;-83
2021/08/15 04:53:00;;;;;;;19.35;17.23;;;;;;;23.06;57.76;98853.34;2278976;78;21261;-82
2021/08/15 04:56:01;;;;;;;19.12;17.17;;;;;;;22.94;58.05;98849.83;2278852;78;20924;-82
2021/08/15 04:59:01;;;;;;;20.08;17.50;;;;;;;22.82;58.63;98855.14;2278883;78;20925;-82
2021/08/15 05:02:03;;;;;;;21.50;18.00;;;;;;;22.77;59.18;98855.28;2278758;78;20976;-85
2021/08/15 05:05:03;;;;;;;19.07;17.15;;;;;;;22.79;59.69;98848.11;2278810;78;20945;-84
2021/08/15 05:08:04;;;;;;;25.65;18.67;;;;;;;23.06;59.88;98854.68;2278961;78;20936;-83
2021/08/15 05:11:04;;;;;;;21.42;18.10;;;;;;;23.34;59.63;98858.00;2278742;78;20904;-84
2021/08/15 05:14:06;;;;;;;19.55;17.67;;;;;;;23.56;59.39;98843.42;2278859;78;20940;-85
2021/08/15 05:17:07;;;;;;;20.57;18.20;;;;;;;23.76;59.17;98849.26;2278805;78;20908;-84
2021/08/15 05:20:07;;;;;;;21.48;18.42;;;;;;;23.94;59.10;98847.63;2278800;78;20964;-82
2021/08/15 05:23:08;;;;;;;19.12;17.17;;;;;;;24.11;58.92;98844.64;2278738;78;20936;-82
2021/08/15 05:26:08;;;;;;;21.73;17.98;;;;;;;24.25;58.89;98845.38;2278467;78;20925;-83
2021/08/15 05:29:09;;;;;;;20.55;18.37;;;;;;;24.40;58.73;98845.23;2278575;78;20952;-82
2021/08/15 05:32:09;;;;;;;20.25;18.05;;;;;;;24.57;58.88;98845.35;2278397;78;20968;-82
2021/08/15 05:35:10;;;;;;;20.20;18.12;;;;;;;24.77;58.90;98843.12;2278722;78;20916;-84
2021/08/15 05:38:10;;;;;;;21.25;19.15;;;;;;;24.60;58.59;98845.69;2279192;78;20897;-84
2021/08/15 05:41:11;;;;;;;20.48;18.20;;;;;;;24.57;58.99;98844.02;2279468;78;21260;-84
2021/08/15 05:44:11;;;;;;;21.23;19.07;;;;;;;24.15;59.32;98842.24;2278946;78;20896;-82
2021/08/15 05:47:12;;;;;;;22.98;20.70;;;;;;;23.97;60.21;98849.70;2278926;78;20870;-82
2021/08/15 05:50:12;;;;;;;21.90;19.52;;;;;;;23.90;60.88;98853.55;2278812;78;20960;-82
2021/08/15 05:53:13;;;;;;;21.20;19.10;;;;;;;23.77;60.93;98853.66;2279164;78;20908;-82
2021/08/15 05:56:13;;;;;;;25.02;18.52;;;;;;;23.73;61.40;98853.38;2279397;78;20901;-83
2021/08/15 05:59:14;;;;;;;21.97;18.87;;;;;;;23.81;61.72;98849.94;2279194;78;20937;-84
2021/08/15 06:02:14;;;;;;;48.65;43.35;;;;;;;24.05;61.97;98852.90;2279490;78;20964;-82
2021/08/15 06:05:15;;;;;;;34.75;29.55;;;;;;;24.63;61.85;98853.55;2279778;78;20903;-83
2021/08/15 06:08:16;;;;;;;210.90;187.20;;;;;;;25.27;60.53;98854.17;2279498;78;20948;-82
2021/08/15 06:11:17;;;;;;;99.67;84.58;;;;;;;25.68;58.76;98856.20;2279467;78;21000;-82
2021/08/15 06:14:17;;;;;;;312.90;280.85;;;;;;;26.01;57.83;98852.34;2279351;78;20951;-81
2021/08/15 06:17:18;;;;;;;119.80;106.97;;;;;;;26.24;57.10;98854.31;2278959;78;20928;-81
2021/08/15 06:20:18;;;;;;;92.42;82.62;;;;;;;26.32;56.76;98855.69;2280797;78;20944;-83
2021/08/15 06:23:19;;;;;;;46.33;41.45;;;;;;;26.56;55.76;98852.66;2282919;77;20892;-82
2021/08/15 06:26:19;;;;;;;44.18;39.58;;;;;;;26.61;55.15;98852.81;2283200;77;21313;-83
2021/08/15 06:29:20;;;;;;;34.92;30.77;;;;;;;26.76;54.77;98852.94;2283243;77;20925;-84
2021/08/15 06:32:20;;;;;;;125.92;112.95;;;;;;;26.91;54.53;98850.80;2283100;77;20976;-83
2021/08/15 06:35:21;;;;;;;243.07;218.37;;;;;;;27.12;54.06;98846.98;2283180;78;20916;-82
2021/08/15 06:38:21;;;;;;;133.27;119.35;;;;;;;27.29;53.70;98852.26;2283174;77;20905;-84
2021/08/15 06:41:22;;;;;;;115.08;101.90;;;;;;;27.47;53.84;98842.31;2283427;78;20939;-83
2021/08/15 06:44:22;;;;;;;77.30;68.62;;;;;;;27.65;53.51;98838.22;2283404;77;21261;-83
2021/08/15 06:47:23;;;;;;;48.33;43.10;;;;;;;27.76;52.84;98847.89;2282576;77;20948;-83
2021/08/15 06:50:23;;;;;;;36.17;30.12;;;;;;;27.79;52.18;98840.52;2283059;77;20881;-82
2021/08/15 06:53:24;;;;;;;27.22;24.43;;;;;;;27.84;51.80;98841.13;2283615;77;20921;-84
2021/08/15 06:56:24;;;;;;;24.60;22.17;;;;;;;27.91;51.72;98843.83;2283208;77;21265;-81
2021/08/15 06:59:25;;;;;;;21.73;19.42;;;;;;;28.01;51.73;98837.44;2283356;78;20933;-82
2021/08/15 07:02:25;;;;;;;585.17;522.87;;;;;;;28.11;51.19;98836.42;2283458;77;20988;-83
2021/08/15 07:05:26;;;;;;;129.50;115.60;;;;;;;28.19;51.33;98834.14;2284409;78;21000;-83
2021/08/15 07:08:26;;;;;;;21.48;19.35;;;;;;;28.34;51.01;98835.93;2283746;77;20928;-83
2021/08/15 07:11:27;;;;;;;16.75;15.03;;;;;;;28.21;50.86;98831.75;2283900;78;21351;-81
2021/08/15 07:14:29;;;;;;;15.90;14.25;;;;;;;28.17;50.86;98826.66;2284036;77;21331;-82
2021/08/15 07:17:29;;;;;;;19.65;14.68;;;;;;;28.15;51.07;98824.55;2283874;78;20972;-81
2021/08/15 07:20:30;;;;;;;15.85;14.25;;;;;;;28.22;50.98;98821.40;2283439;78;21386;-84
2021/08/15 07:23:30;;;;;;;15.08;13.70;;;;;;;28.33;51.56;98822.13;2282535;77;20943;-80
2021/08/15 07:26:31;;;;;;;15.65;14.07;;;;;;;28.53;51.57;98824.45;2281940;78;20889;-81
2021/08/15 07:29:32;;;;;;;24.72;20.62;;;;;;;28.87;51.32;98827.78;2282362;77;20983;-80
2021/08/15 07:32:32;;;;;;;43.75;38.42;;;;;;;29.13;49.94;98822.09;2282911;77;20991;-79
2021/08/15 07:35:33;;;;;;;21.17;17.45;;;;;;;29.06;49.64;98828.83;2283411;77;20893;-80
2021/08/15 07:38:33;;;;;;;22.50;15.25;;;;;;;28.96;49.43;98825.86;2282280;77;21268;-82
2021/08/15 07:41:34;;;;;;;15.58;14.03;;;;;;;28.91;49.74;98830.66;2282108;78;20888;-82
2021/08/15 07:44:34;;;;;;;16.85;13.38;;;;;;;28.94;49.52;98825.09;2281552;77;20948;-82
2021/08/15 07:47:35;;;;;;;15.25;13.75;;;;;;;29.00;49.68;98827.39;2282903;77;20965;-83
2021/08/15 07:50:36;;;;;;;15.55;13.98;;;;;;;29.06;49.17;98824.31;2282951;77;20889;-81
2021/08/15 07:53:37;;;;;;;15.55;13.80;;;;;;;29.13;49.14;98824.30;2282861;78;20952;-81
2021/08/15 07:56:37;;;;;;;16.15;13.40;;;;;;;29.10;49.13;98817.78;2283220;77;20949;-80
2021/08/15 07:59:38;;;;;;;19.37;14.10;;;;;;;29.20;49.28;98818.05;2283119;77;20901;-80
2021/08/15 08:02:38;;;;;;;14.70;13.30;;;;;;;29.25;49.18;98821.30;2283063;77;20984;-80
2021/08/15 08:05:39;;;;;;;14.07;12.40;;;;;;;29.28;47.55;98818.90;2283512;77;20924;-81
2021/08/15 08:08:39;;;;;;;17.73;13.80;;;;;;;29.39;47.17;98816.38;2282869;77;20948;-81
2021/08/15 08:11:40;;;;;;;129.72;115.90;;;;;;;29.58;47.36;98816.95;2282684;78;21356;-81
2021/08/15 08:14:40;;;;;;;74.58;66.42;;;;;;;29.71;48.01;98819.21;2282941;77;20897;-80
2021/08/15 08:17:41;;;;;;;33.55;30.02;;;;;;;29.78;47.57;98808.42;2282133;77;20892;-81
2021/08/15 08:20:41;;;;;;;32.33;28.60;;;;;;;30.17;46.82;98808.05;2281704;77;20952;-79
2021/08/15 08:23:42;;;;;;;22.07;15.85;;;;;;;30.54;46.18;98810.42;2281490;78;20915;-82
2021/08/15 08:26:42;;;;;;;16.67;12.82;;;;;;;30.87;45.22;98803.64;2282046;77;20908;-80
2021/08/15 08:29:43;;;;;;;13.22;12.13;;;;;;;31.10;43.56;98801.98;2281761;77;20924;-81
2021/08/15 08:32:43;;;;;;;19.00;17.00;;;;;;;31.24;43.73;98799.20;2281927;77;20947;-81
2021/08/15 08:35:44;;;;;;;28.62;25.62;;;;;;;31.50;43.48;98795.44;2282873;77;20904;-80
2021/08/15 08:38:44;;;;;;;136.47;122.67;;;;;;;31.62;41.38;98790.96;2283756;77;21280;-80
2021/08/15 08:41:45;;;;;;;18.02;16.23;;;;;;;31.52;40.69;98792.14;2283677;77;20968;-82
2021/08/15 08:44:45;;;;;;;14.73;10.48;;;;;;;31.26;40.42;98790.03;2284242;77;20885;-82
2021/08/15 08:47:46;;;;;;;12.50;10.20;;;;;;;31.21;40.57;98788.61;2284140;78;20951;-82
2021/08/15 08:50:46;;;;;;;10.48;9.38;;;;;;;31.34;39.96;98786.77;2283916;78;20992;-82
2021/08/15 08:53:47;;;;;;;11.15;8.38;;;;;;;31.40;40.03;98792.19;2283184;77;21323;-80
2021/08/15 08:56:47;;;;;;;10.08;7.45;;;;;;;31.47;38.23;98792.11;2281706;77;20913;-78
2021/08/15 08:59:48;;;;;;;105.37;94.47;;;;;;;31.65;37.96;98786.20;2283226;78;20916;-81
2021/08/15 09:02:48;;;;;;;61.13;54.95;;;;;;;31.70;37.43;98784.53;2256231;78;21015;-81
2021/08/15 09:05:49;;;;;;;19.12;17.45;;;;;;;31.68;37.55;98779.22;2283189;77;20912;-83
2021/08/15 09:08:49;;;;;;;12.85;11.18;;;;;;;31.78;37.55;98776.72;2283541;77;20976;-82
2021/08/15 09:11:50;;;;;;;10.28;9.18;;;;;;;31.70;37.98;98776.93;2283105;77;20932;-83
2021/08/15 09:14:50;;;;;;;9.33;8.43;;;;;;;31.62;38.07;98772.94;2283536;77;20900;-81
2021/08/15 09:17:51;;;;;;;185.90;167.72;;;;;;;31.42;38.79;98771.36;2283166;77;20916;-81
2021/08/15 09:20:51;;;;;;;10.70;9.33;;;;;;;31.58;38.52;98774.64;2281265;78;20987;-81
2021/08/15 09:23:52;;;;;;;13.98;10.13;;;;;;;31.75;37.46;98759.90;2279645;78;20940;-83
2021/08/15 09:26:53;;;;;;;13.18;11.85;;;;;;;31.61;38.38;98760.42;2279493;78;20932;-81
2021/08/15 09:29:53;;;;;;;13.72;10.78;;;;;;;31.53;38.78;98759.28;2279562;78;21307;-81
2021/08/15 09:32:54;;;;;;;15.35;10.78;;;;;;;31.44;38.72;98751.87;2279142;78;21323;-82
2021/08/15 09:35:54;;;;;;;19.37;12.85;;;;;;;31.53;39.22;98749.35;2279222;78;20953;-81
2021/08/15 09:38:55;;;;;;;12.35;11.12;;;;;;;31.75;39.08;98739.17;2279015;78;21348;-83
2021/08/15 09:41:55;;;;;;;11.68;10.43;;;;;;;31.81;39.15;98737.35;2279615;78;20869;-83
2021/08/15 09:44:56;;;;;;;14.10;10.68;;;;;;;31.51;39.02;98739.66;2279654;78;20924;-83
2021/08/15 09:47:56;;;;;;;11.35;10.28;;;;;;;31.55;39.90;98736.61;2279715;78;20932;-83
2021/08/15 09:50:57;;;;;;;13.08;11.73;;;;;;;32.08;39.29;98734.39;2279935;78;20925;-81
2021/08/15 09:54:00;;;;;;;13.30;12.03;;;;;;;32.45;37.94;98732.88;2279466;78;20936;-81
2021/08/15 09:57:00;;;;;;;13.98;11.57;;;;;;;32.34;38.61;98735.56;2279215;78;20985;-81
2021/08/15 10:00:03;;;;;;;13.18;10.82;;;;;;;32.49;37.93;98730.30;2279288;78;20897;-82
2021/08/15 10:03:04;;;;;;;12.23;10.70;;;;;;;32.49;38.17;98735.20;2279195;78;21006;-81
2021/08/15 10:06:05;;;;;;;14.30;11.63;;;;;;;32.62;38.03;98725.14;2279186;78;20917;-82
2021/08/15 10:09:05;;;;;;;16.42;12.28;;;;;;;32.70;38.29;98720.47;2279438;78;20935;-82
2021/08/15 10:12:05;;;;;;;15.05;10.75;;;;;;;32.75;38.30;98725.01;2279447;78;20940;-82
2021/08/15 10:15:06;;;;;;;14.68;10.90;;;;;;;32.83;37.55;98718.52;2279548;78;20936;-83
2021/08/15 10:18:06;;;;;;;14.28;10.90;;;;;;;32.59;38.07;98719.13;2279477;78;20947;-83
2021/08/15 10:21:07;;;;;;;12.35;9.78;;;;;;;32.51;38.89;98714.33;2279379;78;21331;-83
2021/08/15 10:24:08;;;;;;;11.65;10.43;;;;;;;32.31;37.66;98713.71;2279568;78;20956;-82
2021/08/15 10:27:09;;;;;;;11.12;9.90;;;;;;;32.18;38.47;98704.34;2280398;78;20909;-82
2021/08/15 10:30:09;;;;;;;13.03;10.98;;;;;;;32.12;38.86;98703.47;2279540;78;20960;-82
2021/08/15 10:33:10;;;;;;;14.10;9.65;;;;;;;31.80;38.94;98703.73;2279609;78;21000;-81
2021/08/15 10:36:11;;;;;;;12.37;10.90;;;;;;;31.95;40.52;98698.01;2279505;78;20944;-81
2021/08/15 10:39:11;;;;;;;10.70;9.60;;;;;;;31.95;40.52;98698.01;2279894;78;20948;-82
2021/08/15 10:42:12;;;;;;;12.15;9.13;;;;;;;31.96;38.05;98697.52;2279777;78;20897;-84
2021/08/15 10:45:15;;;;;;;10.28;8.65;;;;;;;31.81;38.86;98690.61;2280025;78;20897;-81
2021/08/15 10:48:16;;;;;;;10.95;9.00;;;;;;;31.54;38.74;98680.08;2279844;78;21017;-82
2021/08/15 10:51:16;;;;;;;10.10;9.18;;;;;;;31.54;38.74;98680.08;2279616;78;20905;-82
2021/08/15 10:54:17;;;;;;;15.53;9.45;;;;;;;31.68;39.00;98680.73;2279739;78;20946;-81
2021/08/15 10:57:17;;;;;;;11.05;8.38;;;;;;;32.18;38.04;98672.42;2279588;78;20913;-82
2021/08/15 11:00:17;;;;;;;11.22;8.75;;;;;;;31.94;37.22;98668.44;2279726;78;20916;-81
2021/08/15 11:03:19;;;;;;;9.25;8.35;;;;;;;31.80;37.53;98670.00;2279379;78;21019;-83
2021/08/15 11:06:19;;;;;;;90.95;80.47;;;;;;;32.05;37.01;98668.94;2279925;78;20885;-82
2021/08/15 11:09:20;;;;;;;42.08;37.30;;;;;;;31.93;37.38;98678.38;2279731;78;21350;-80
2021/08/15 11:12:20;;;;;;;36.10;32.78;;;;;;;32.02;36.83;98670.04;2279799;78;20982;-81
2021/08/15 11:15:21;;;;;;;9.65;8.70;;;;;;;32.05;37.11;98663.05;2279820;78;20904;-81
2021/08/15 11:18:21;;;;;;;30.00;27.15;;;;;;;32.05;36.07;98662.19;2279916;78;20916;-81
2021/08/15 11:21:21;;;;;;;15.40;13.95;;;;;;;31.90;37.14;98662.41;2281336;78;20960;-81
2021/08/15 11:24:22;;;;;;;16.23;14.70;;;;;;;31.84;37.06;98666.09;2283419;77;20976;-82
2021/08/15 11:27:23;;;;;;;11.55;9.78;;;;;;;31.54;37.95;98663.40;2283220;77;21273;-82
2021/08/15 11:30:23;;;;;;;11.57;9.65;;;;;;;31.19;38.59;98669.23;2283332;78;21331;-82
2021/08/15 11:33:24;;;;;;;10.38;9.40;;;;;;;30.91;39.18;98665.88;2283008;78;20956;-81
2021/08/15 11:36:24;;;;;;;13.58;10.50;;;;;;;31.05;39.20;98658.97;2283429;77;20901;-81
2021/08/15 11:39:25;;;;;;;11.55;10.45;;;;;;;30.87;39.13;98661.69;2283088;77;20968;-82
2021/08/15 11:42:25;;;;;;;10.40;9.00;;;;;;;31.00;39.84;98661.63;2283116;77;20956;-83
2021/08/15 11:45:26;;;;;;;10.82;9.83;;;;;;;31.31;37.41;98664.30;2283053;77;20928;-82
2021/08/15 11:48:26;;;;;;;10.18;9.00;;;;;;;31.42;37.75;98658.09;2282918;77;20917;-82
2021/08/15 11:51:27;;;;;;;15.35;9.85;;;;;;;31.61;37.63;98656.55;2283946;78;20897;-83
2021/08/15 11:54:27;;;;;;;11.15;9.88;;;;;;;31.72;37.22;98649.50;2283015;77;20944;-82
2021/08/15 11:57:28;;;;;;;11.25;9.95;;;;;;;31.81;37.82;98653.69;2282894;77;20896;-81
2021/08/15 12:00:28;;;;;;;10.90;9.90;;;;;;;31.70;37.45;98649.63;2283037;77;20940;-81
2021/08/15 12:03:29;;;;;;;12.75;9.50;;;;;;;31.81;36.71;98648.78;2283108;77;20991;-82
2021/08/15 12:06:29;;;;;;;12.78;11.22;;;;;;;31.88;37.00;98650.88;2283362;77;20900;-83
2021/08/15 12:09:30;;;;;;;11.80;10.63;;;;;;;32.12;36.91;98642.72;2282902;77;20948;-81
2021/08/15 12:12:31;;;;;;;26.48;23.47;;;;;;;31.90;37.25;98645.36;2283450;78;20908;-81
2021/08/15 12:15:32;;;;;;;56.37;50.50;;;;;;;32.23;36.91;98653.52;2283586;78;20936;-80
2021/08/15 12:18:34;;;;;;;29.75;26.80;;;;;;;32.59;36.88;98647.52;2283806;77;20921;-81
2021/08/15 12:21:35;;;;;;;26.33;23.47;;;;;;;32.89;36.04;98636.06;2281658;77;20991;-81
2021/08/15 12:24:35;;;;;;;20.00;17.85;;;;;;;33.13;35.65;98649.41;2279563;78;20917;-81
2021/08/15 12:27:35;;;;;;;12.98;11.78;;;;;;;32.94;35.37;98640.10;2279630;78;20913;-81
2021/08/15 12:30:36;;;;;;;15.95;9.93;;;;;;;32.60;35.49;98646.04;2279826;78;20937;-81
2021/08/15 12:33:36;;;;;;;12.00;11.00;;;;;;;32.53;35.77;98646.17;2279818;78;21335;-81
2021/08/15 12:36:37;;;;;;;9.60;8.70;;;;;;;32.62;36.14;98636.45;2279104;78;20944;-80
2021/08/15 12:39:43;;;;;;;11.97;10.43;;;;;;;32.83;35.29;98640.13;2279071;78;20949;-79
2021/08/15 12:42:44;;;;;;;93.15;84.28;;;;;;;33.19;34.82;98626.77;2279009;78;21431;-80
2021/08/15 12:45:46;;;;;;;10.78;9.35;;;;;;;33.19;34.82;98626.77;2279013;78;20940;-81
2021/08/15 12:48:46;;;;;;;9.43;8.50;;;;;;;33.28;33.46;98623.78;2278862;78;20933;-82
2021/08/15 12:51:46;;;;;;;15.20;10.13;;;;;;;33.00;33.47;98620.33;2279199;78;20916;-81
2021/08/15 12:54:47;;;;;;;16.93;15.23;;;;;;;32.69;34.31;98631.41;2279471;78;20913;-81
2021/08/15 12:57:47;;;;;;;9.98;7.75;;;;;;;32.71;34.35;98611.88;2279665;78;20900;-82
2021/08/15 13:00:48;;;;;;;9.80;7.67;;;;;;;32.88;33.24;98608.66;2279640;78;20961;-82
2021/08/15 13:03:49;;;;;;;11.85;8.50;;;;;;;32.89;33.29;98613.95;2279092;78;20991;-82
2021/08/15 13:06:49;;;;;;;9.85;7.75;;;;;;;32.88;33.35;98614.92;2279479;78;20909;-82
2021/08/15 13:09:50;;;;;;;8.60;7.80;;;;;;;32.65;34.08;98617.29;2279506;78;20904;-81
2021/08/15 13:12:50;;;;;;;9.50;8.55;;;;;;;32.54;33.82;98625.42;2279436;78;20960;-82
2021/08/15 13:15:51;;;;;;;9.20;6.95;;;;;;;32.39;33.78;98613.16;2279138;78;20980;-81
2021/08/15 13:18:51;;;;;;;8.00;7.33;;;;;;;32.47;31.97;98607.98;2279266;78;20924;-81
2021/08/15 13:21:52;;;;;;;19.27;17.37;;;;;;;32.43;32.62;98609.22;2278709;78;20975;-80
2021/08/15 13:24:52;;;;;;;8.60;6.78;;;;;;;32.10;32.75;98606.87;2278571;78;20924;-81
2021/08/15 13:27:53;;;;;;;91.47;82.25;;;;;;;31.78;33.44;98606.70;2278471;78;20901;-82
2021/08/15 13:30:53;;;;;;;10.88;9.83;;;;;;;31.97;34.33;98601.56;2278623;78;20957;-81
2021/08/15 13:33:54;;;;;;;7.92;7.12;;;;;;;32.11;33.71;98600.98;2279022;78;21003;-80
2021/08/15 13:36:54;;;;;;;13.43;7.35;;;;;;;31.97;32.94;98602.06;2278923;78;20904;-80
2021/08/15 13:39:58;;;;;;;9.28;7.25;;;;;;;32.05;32.90;98602.30;2279573;78;21367;-80
2021/08/15 13:42:57;;;;;;;9.93;7.08;;;;;;;32.01;32.27;98608.94;2279015;78;21276;-81
2021/08/15 13:45:58;;;;;;;8.35;7.50;;;;;;;31.83;31.67;98598.25;2279190;78;20866;-80
2021/08/15 13:48:58;;;;;;;7.25;6.55;;;;;;;31.74;32.66;98589.52;2278799;78;20912;-81
2021/08/15 13:51:59;;;;;;;10.90;7.47;;;;;;;31.86;32.09;98593.47;2278671;78;21279;-81